Time;durP1;ratioP1;P1;durP2;ratioP2;P2;SDS_P1;SDS_P2;PMS_P1;PMS_P2;Temp;Humidity;BMP_temperature;BMP_pressure;BME280_temperature;BME280_humidity;BME280_pressure;Samples;Min_cycle;Max_cycle;Signal;HPM_P1;HPM_P2
2022/10/28 00:02:24;;;;;;;2.80;2.22;;;;;;;9.21;72.84;97731.19;5093394;28;20075;-60
2022/10/28 00:04:51;;;;;;;2.42;1.85;;;;;;;9.22;72.92;97744.22;5093331;28;20052;-60
2022/10/28 00:07:18;;;;;;;2.42;2.22;;;;;;;9.21;72.65;97745.09;5093449;28;20044;-61
2022/10/28 00:09:45;;;;;;;3.45;2.38;;;;;;;9.18;72.56;97739.91;5093220;28;20048;-60
2022/10/28 00:12:13;;;;;;;2.00;1.77;;;;;;;9.11;72.85;97733.06;5093235;28;20071;-61
2022/10/28 00:14:42;;;;;;;3.22;2.55;;;;;;;9.16;73.10;97738.22;5093284;28;20044;-61
2022/10/28 00:17:09;;;;;;;2.42;2.22;;;;;;;9.14;73.10;97735.63;5093171;28;20051;-62
2022/10/28 00:19:36;;;;;;;2.90;1.83;;;;;;;9.14;72.49;97738.25;5093192;28;20047;-61
2022/10/28 00:22:03;;;;;;;5.43;2.22;;;;;;;9.12;71.90;97728.72;5093057;28;20071;-62
2022/10/28 00:24:31;;;;;;;2.65;2.20;;;;;;;9.03;72.17;97725.31;5093180;28;20147;-62
2022/10/28 00:26:58;;;;;;;2.65;2.15;;;;;;;8.94;72.94;97718.47;5093101;28;20052;-61
2022/10/28 00:29:26;;;;;;;3.60;2.20;;;;;;;8.87;73.50;97727.25;5093149;28;20036;-62
2022/10/28 00:31:56;;;;;;;2.20;2.00;;;;;;;8.85;73.55;97724.69;5093111;28;20136;-61
2022/10/28 00:34:23;;;;;;;1.90;1.65;;;;;;;8.83;72.40;97726.47;5093074;28;20052;-62
2022/10/28 00:36:51;;;;;;;2.42;2.03;;;;;;;8.77;72.11;97716.09;5093102;28;20149;-61
2022/10/28 00:39:20;;;;;;;3.45;2.30;;;;;;;8.64;73.03;97717.13;5092913;28;20051;-61
2022/10/28 00:41:49;;;;;;;3.38;2.30;;;;;;;8.64;73.19;97730.16;5092964;28;20059;-61
2022/10/28 00:44:56;;;;;;;4.43;2.40;;;;;;;8.52;73.70;97724.13;5093062;28;20101;-62
2022/10/28 00:47:36;;;;;;;2.50;2.03;;;;;;;8.49;73.51;97721.56;5088307;28;20131;-62
2022/10/28 00:50:12;;;;;;;4.13;2.30;;;;;;;8.34;74.05;97725.22;5097121;28;20485;-61
2022/10/28 00:52:40;;;;;;;2.88;2.30;;;;;;;8.32;74.11;97719.16;5096931;28;20048;-62
2022/10/28 00:55:09;;;;;;;2.50;2.08;;;;;;;8.30;74.06;97718.28;5096986;28;20044;-61
2022/10/28 00:57:38;;;;;;;2.30;2.08;;;;;;;8.27;74.41;97719.19;5097097;28;20044;-61
2022/10/28 01:00:07;;;;;;;2.85;2.13;;;;;;;8.20;74.60;97723.63;5096974;28;20048;-61
2022/10/28 01:02:43;;;;;;;3.75;2.28;;;;;;;8.12;74.61;97719.34;5096861;28;20055;-61
2022/10/28 01:05:11;;;;;;;5.65;2.47;;;;;;;8.13;75.04;97715.88;5096702;28;20444;-61
2022/10/28 01:07:39;;;;;;;2.25;1.98;;;;;;;8.17;74.62;97720.16;5097029;28;20500;-62
2022/10/28 01:10:08;;;;;;;3.17;2.00;;;;;;;8.11;74.63;97715.00;5096948;28;20501;-61
2022/10/28 01:12:46;;;;;;;1.93;1.63;;;;;;;8.10;74.47;97708.94;5096810;28;20383;-62
2022/10/28 01:15:24;;;;;;;3.05;2.00;;;;;;;8.12;74.11;97712.38;5096624;28;20044;-61
2022/10/28 01:18:01;;;;;;;3.13;2.17;;;;;;;8.07;75.36;97719.41;5096573;28;20139;-61
2022/10/28 01:21:21;;;;;;;2.55;2.03;;;;;;;8.05;75.72;97706.38;5096480;28;20048;-62
2022/10/28 01:24:04;;;;;;;2.53;1.65;;;;;;;7.95;76.29;97712.53;5080876;28;20113;-61
2022/10/28 01:27:05;;;;;;;2.45;2.17;;;;;;;7.87;76.49;97719.53;5096389;28;20137;-61
2022/10/28 01:29:48;;;;;;;;;;;;;;;7.77;76.35;97717.00;5039929;28;20396;-61
2022/10/28 01:32:24;;;;;;;2.58;1.60;;;;;;;7.76;76.69;97719.63;5096320;28;19989;-62
2022/10/28 01:35:04;;;;;;;3.53;2.38;;;;;;;7.73;76.32;97717.06;5096169;28;20040;-61
2022/10/28 01:37:39;;;;;;;2.22;2.00;;;;;;;7.74;75.70;97713.56;5096224;28;20159;-62
2022/10/28 01:40:17;;;;;;;4.25;2.28;;;;;;;7.74;76.27;97716.19;5096272;28;20478;-62
2022/10/28 01:42:52;;;;;;;3.22;2.38;;;;;;;7.77;76.35;97730.03;5096000;28;20482;-62
2022/10/28 01:45:30;;;;;;;3.25;2.03;;;;;;;7.73;76.59;97715.31;5096321;28;20494;-61
2022/10/28 01:48:02;;;;;;;2.15;1.75;;;;;;;7.69;76.58;97718.81;5096042;28;20070;-62
2022/10/28 01:50:35;;;;;;;2.55;2.20;;;;;;;7.63;76.12;97718.84;5096004;28;20044;-61
2022/10/28 01:53:07;;;;;;;2.50;2.25;;;;;;;7.61;75.62;97721.47;5095815;28;20044;-61
2022/10/28 01:55:38;;;;;;;3.22;2.40;;;;;;;7.54;75.56;97725.00;5095829;28;20052;-61
2022/10/28 01:58:08;;;;;;;2.72;2.20;;;;;;;7.46;76.24;97725.06;5094728;28;20048;-61
2022/10/28 02:00:40;;;;;;;3.42;2.58;;;;;;;7.48;76.35;97728.53;5095316;28;20401;-61
2022/10/28 02:03:10;;;;;;;4.22;2.67;;;;;;;7.52;75.82;97719.81;5095508;28;20048;-61
2022/10/28 02:05:41;;;;;;;3.75;2.30;;;;;;;7.43;76.63;97722.47;5095643;28;20048;-61
2022/10/28 02:08:18;;;;;;;;;;;;;;;7.42;76.61;97725.94;5095952;28;20410;-61
2022/10/28 02:10:58;;;;;;;3.80;2.65;;;;;;;7.39;76.66;97731.16;5095464;28;19927;-61
2022/10/28 02:13:33;;;;;;;4.15;2.80;;;;;;;7.38;76.68;97726.84;5095395;28;20094;-61
2022/10/28 02:16:07;;;;;;;3.40;2.60;;;;;;;7.27;77.21;97729.50;5095331;28;20051;-62
2022/10/28 02:18:47;;;;;;;4.32;2.78;;;;;;;7.27;77.51;97722.56;5095284;28;20129;-61
2022/10/28 02:21:20;;;;;;;3.53;2.67;;;;;;;7.33;77.01;97724.28;5095106;28;20132;-61
2022/10/28 02:23:53;;;;;;;3.60;2.35;;;;;;;7.28;77.68;97723.41;5095146;28;20040;-61
2022/10/28 02:26:25;;;;;;;2.72;2.13;;;;;;;7.25;77.93;97726.91;5095317;28;20094;-61
2022/10/28 02:29:01;;;;;;;3.40;2.40;;;;;;;7.22;78.04;97720.88;5095290;28;20394;-61
2022/10/28 02:31:33;;;;;;;3.40;2.53;;;;;;;7.18;78.34;97723.50;5095455;28;20052;-62
2022/10/28 02:34:10;;;;;;;4.22;2.20;;;;;;;7.20;77.97;97724.34;5095015;28;20052;-61
2022/10/28 02:36:45;;;;;;;3.35;2.28;;;;;;;7.13;78.20;97730.44;5095042;28;20486;-61
2022/10/28 02:39:16;;;;;;;2.60;2.33;;;;;;;7.11;77.82;97726.13;5094082;28;20075;-61
2022/10/28 02:41:48;;;;;;;2.92;2.47;;;;;;;7.10;77.20;97727.84;5094905;28;20048;-61
2022/10/28 02:44:24;;;;;;;2.78;2.47;;;;;;;7.11;77.14;97728.72;5095095;28;20101;-61
2022/10/28 02:46:55;;;;;;;4.50;2.53;;;;;;;7.10;77.27;97733.06;5094687;28;20051;-61
2022/10/28 02:49:34;;;;;;;5.88;2.78;;;;;;;7.05;77.77;97734.84;5094637;28;20501;-62
2022/10/28 02:52:06;;;;;;;3.83;2.95;;;;;;;7.06;78.02;97739.16;5094677;28;20394;-61
2022/10/28 02:54:38;;;;;;;3.15;2.60;;;;;;;7.00;78.28;97737.44;5094570;28;20055;-61
2022/10/28 02:57:09;;;;;;;3.22;2.47;;;;;;;6.99;77.71;97733.13;5094523;28;20040;-61
2022/10/28 02:59:41;;;;;;;6.50;2.80;;;;;;;6.97;78.26;97734.88;5094553;28;20044;-61
2022/10/28 03:02:10;;;;;;;3.25;2.47;;;;;;;6.95;78.71;97742.69;5094440;28;20044;-61
2022/10/28 03:04:39;;;;;;;4.40;2.38;;;;;;;6.93;79.41;97734.00;5094409;28;20532;-61
2022/10/28 03:07:06;;;;;;;3.28;2.35;;;;;;;6.99;79.66;97743.53;5094431;28;20048;-61
2022/10/28 03:09:36;;;;;;;3.00;2.35;;;;;;;6.97;79.32;97740.06;5093864;28;20086;-60
2022/10/28 03:12:03;;;;;;;3.78;2.70;;;;;;;7.03;78.42;97737.44;5094311;28;20048;-61
2022/10/28 03:14:30;;;;;;;2.80;2.47;;;;;;;7.05;78.29;97745.25;5094329;28;20058;-61
2022/10/28 03:16:57;;;;;;;2.88;2.22;;;;;;;7.07;78.25;97749.56;5094185;28;20426;-61
2022/10/28 03:19:25;;;;;;;3.20;2.33;;;;;;;7.08;78.11;97743.47;5094136;28;20044;-61
2022/10/28 03:21:54;;;;;;;3.10;2.03;;;;;;;6.98;77.61;97757.41;5093893;28;20055;-61
2022/10/28 03:24:26;;;;;;;4.38;2.20;;;;;;;6.95;77.72;97745.28;5094340;28;20058;-61
2022/10/28 03:26:53;;;;;;;5.43;2.28;;;;;;;6.94;77.53;97745.28;5094280;28;20044;-61
2022/10/28 03:29:20;;;;;;;2.55;1.88;;;;;;;6.93;77.28;97753.97;5094050;28;20079;-61
2022/10/28 03:31:48;;;;;;;5.80;2.50;;;;;;;6.94;78.28;97755.69;5094168;28;20044;-61
2022/10/28 03:34:15;;;;;;;3.13;2.55;;;;;;;6.87;77.80;97759.19;5093761;28;20563;-61
2022/10/28 03:36:46;;;;;;;4.63;2.60;;;;;;;6.76;78.29;97761.81;5093647;28;20059;-60
2022/10/28 03:39:15;;;;;;;4.13;2.10;;;;;;;6.68;78.38;97764.44;5093765;28;20109;-61
2022/10/28 03:41:43;;;;;;;4.50;2.40;;;;;;;6.69;78.03;97759.22;5093976;28;20444;-61
2022/10/28 03:44:10;;;;;;;2.80;2.42;;;;;;;6.68;77.69;97761.84;5093709;28;20131;-60
2022/10/28 03:46:37;;;;;;;6.55;2.58;;;;;;;6.57;78.38;97764.47;5093810;28;20414;-61
2022/10/28 03:49:04;;;;;;;4.07;2.22;;;;;;;6.50;78.58;97749.78;5093556;28;20082;-61
2022/10/28 03:51:31;;;;;;;4.88;2.00;;;;;;;6.48;78.83;97757.56;5093468;28;20474;-61
2022/10/28 03:53:58;;;;;;;10.18;2.20;;;;;;;6.47;79.18;97761.03;5093413;28;20052;-61
2022/10/28 03:56:27;;;;;;;5.00;2.58;;;;;;;6.48;79.14;97752.38;5093503;28;20087;-61
2022/10/28 03:58:55;;;;;;;1.98;1.77;;;;;;;6.48;78.60;97756.69;5093554;28;20083;-60
2022/10/28 04:01:23;;;;;;;3.63;2.42;;;;;;;6.44;78.33;97761.91;5093555;28;20048;-61
2022/10/28 04:03:50;;;;;;;5.45;2.22;;;;;;;6.29;79.33;97765.38;5093389;28;20048;-61
2022/10/28 04:06:17;;;;;;;3.47;2.13;;;;;;;6.25;79.97;97758.47;5093326;28;20105;-61
2022/10/28 04:08:44;;;;;;;4.85;2.40;;;;;;;6.23;79.50;97762.78;5093193;28;20452;-60
2022/10/28 04:11:11;;;;;;;2.70;2.00;;;;;;;6.22;79.36;97755.00;5093124;28;20062;-61
2022/10/28 04:13:40;;;;;;;3.67;2.45;;;;;;;6.16;79.92;97756.75;5093121;28;20044;-60
2022/10/28 04:16:08;;;;;;;3.67;2.08;;;;;;;6.18;79.96;97759.34;5093145;28;20091;-61
2022/10/28 04:18:35;;;;;;;3.22;2.40;;;;;;;6.19;79.68;97761.94;5093387;28;20040;-61
2022/10/28 04:21:04;;;;;;;3.67;2.50;;;;;;;6.21;79.64;97755.88;5092432;28;20040;-61
2022/10/28 04:23:31;;;;;;;3.35;2.88;;;;;;;6.17;79.80;97757.63;5092731;28;20052;-61
2022/10/28 04:25:58;;;;;;;2.95;2.25;;;;;;;6.16;80.28;97753.28;5093084;28;20040;-61
2022/10/28 04:28:26;;;;;;;3.00;2.15;;;;;;;6.11;81.04;97744.63;5093006;28;20461;-61
2022/10/28 04:30:55;;;;;;;2.35;1.80;;;;;;;6.21;80.33;97750.66;5093009;28;20052;-60
2022/10/28 04:33:26;;;;;;;5.20;2.60;;;;;;;6.11;80.83;97750.66;5092903;28;20048;-61
2022/10/28 04:35:53;;;;;;;2.95;2.13;;;;;;;6.11;80.86;97750.66;5093001;28;20087;-61
2022/10/28 04:38:21;;;;;;;2.25;2.08;;;;;;;6.11;80.99;97747.22;5092908;28;20074;-60
2022/10/28 04:40:49;;;;;;;3.33;2.10;;;;;;;6.17;80.40;97753.28;5092788;28;20048;-60
2022/10/28 04:43:16;;;;;;;2.25;1.70;;;;;;;6.21;79.73;97755.88;5092918;28;20098;-60
2022/10/28 04:45:43;;;;;;;2.22;1.67;;;;;;;6.18;80.30;97756.75;5092761;28;20576;-60
2022/10/28 04:48:12;;;;;;;2.85;1.83;;;;;;;6.19;80.30;97745.47;5092733;28;20079;-61
2022/10/28 04:50:39;;;;;;;4.63;2.25;;;;;;;6.23;80.47;97757.59;5092812;28;20044;-61
2022/10/28 04:53:07;;;;;;;2.42;1.92;;;;;;;6.26;80.16;97760.19;5092683;28;20105;-61
2022/10/28 04:55:34;;;;;;;2.50;2.00;;;;;;;6.33;79.40;97750.66;5092607;28;20113;-61
2022/10/28 04:58:02;;;;;;;6.20;2.20;;;;;;;6.36;79.26;97757.59;5092898;28;20109;-61
2022/10/28 05:00:30;;;;;;;3.25;2.15;;;;;;;6.39;79.73;97754.97;5093138;28;20152;-61
2022/10/28 05:03:00;;;;;;;3.67;2.03;;;;;;;6.44;79.69;97754.09;5092920;28;20055;-61
2022/10/28 05:05:29;;;;;;;3.17;2.33;;;;;;;6.48;79.85;97756.69;5093095;28;20060;-61
2022/10/28 05:07:56;;;;;;;2.53;1.88;;;;;;;6.49;80.11;97761.00;5092913;28;20051;-61
2022/10/28 05:10:24;;;;;;;3.53;2.30;;;;;;;6.53;79.72;97755.81;5092838;28;20402;-61
2022/10/28 05:12:51;;;;;;;3.50;2.40;;;;;;;6.47;79.80;97758.41;5092928;28;20044;-61
2022/10/28 05:15:19;;;;;;;2.65;2.30;;;;;;;6.54;80.31;97757.53;5092952;28;20044;-61
2022/10/28 05:17:47;;;;;;;3.60;2.15;;;;;;;6.61;80.53;97760.13;5092919;28;20136;-61
2022/10/28 05:20:16;;;;;;;5.13;2.10;;;;;;;6.68;80.26;97767.03;5092932;28;20052;-61
2022/10/28 05:22:49;;;;;;;5.38;2.08;;;;;;;6.76;80.39;97767.03;5092565;28;20055;-61
2022/10/28 05:25:17;;;;;;;2.78;2.17;;;;;;;6.98;81.27;97769.56;5092843;28;20504;-61
2022/10/28 05:27:44;;;;;;;4.00;2.28;;;;;;;8.00;79.15;97762.88;5092878;28;20447;-61
2022/10/28 05:30:12;;;;;;;3.88;2.30;;;;;;;9.38;73.95;97767.53;5092727;28;20067;-62
2022/10/28 05:32:40;;;;;;;4.68;1.90;;;;;;;10.82;67.66;97765.22;5093217;28;20047;-62
2022/10/28 05:35:08;;;;;;;1.70;1.60;;;;;;;12.10;62.04;97765.97;5096630;28;20113;-61
2022/10/28 05:37:35;;;;;;;3.10;1.73;;;;;;;13.31;58.11;97766.25;5096591;28;20474;-61
2022/10/28 05:40:04;;;;;;;1.33;1.23;;;;;;;14.37;54.61;97772.63;5096427;28;20478;-61
2022/10/28 05:42:31;;;;;;;2.50;1.52;;;;;;;15.38;52.31;97765.59;5096489;28;20048;-61
2022/10/28 05:44:58;;;;;;;3.83;1.63;;;;;;;16.42;49.07;97771.19;5096256;28;20044;-61
2022/10/28 05:47:26;;;;;;;2.42;1.42;;;;;;;17.28;46.88;97765.69;5096211;28;20054;-61
2022/10/28 05:49:53;;;;;;;2.00;1.30;;;;;;;18.22;44.90;97769.28;5096235;28;20078;-61
2022/10/28 05:52:20;;;;;;;2.25;1.30;;;;;;;19.15;42.73;97770.78;5096377;28;20048;-62
2022/10/28 05:54:48;;;;;;;3.40;1.38;;;;;;;19.80;41.24;97774.34;5096309;28;20436;-61
2022/10/28 05:57:16;;;;;;;2.33;1.27;;;;;;;20.39;40.10;97770.19;5096018;28;20070;-61
2022/10/28 05:59:43;;;;;;;1.20;1.10;;;;;;;21.05;39.00;97770.72;5095990;28;20498;-60
2022/10/28 06:02:14;;;;;;;1.40;1.00;;;;;;;21.80;37.99;97773.22;5096038;28;20418;-61
2022/10/28 06:04:41;;;;;;;2.80;1.60;;;;;;;22.66;36.11;97781.81;5095967;28;20044;-61
2022/10/28 06:07:09;;;;;;;1.83;1.42;;;;;;;23.50;34.84;97777.88;5095812;28;20366;-60
2022/10/28 06:09:36;;;;;;;1.83;1.40;;;;;;;24.19;33.65;97776.50;5095806;28;20055;-61
2022/10/28 06:12:07;;;;;;;2.38;1.35;;;;;;;24.70;32.85;97784.31;5095848;28;20052;-62
2022/10/28 06:14:35;;;;;;;1.95;1.38;;;;;;;25.07;32.36;97780.66;5095833;28;20048;-61
2022/10/28 06:17:03;;;;;;;2.85;1.40;;;;;;;25.52;31.92;97781.66;5095703;28;20044;-60
2022/10/28 06:19:30;;;;;;;1.98;1.63;;;;;;;26.31;31.21;97786.00;5096282;28;20060;-60
2022/10/28 06:21:57;;;;;;;1.20;1.10;;;;;;;26.88;30.11;97790.25;5095445;28;20048;-61
2022/10/28 06:24:24;;;;;;;1.25;1.15;;;;;;;27.39;29.10;97790.38;5095530;28;20109;-61
2022/10/28 06:26:52;;;;;;;1.95;1.50;;;;;;;27.69;28.90;97796.72;5095540;28;20145;-60
2022/10/28 06:29:19;;;;;;;1.98;1.40;;;;;;;27.84;28.72;97796.38;5095578;28;20044;-60
2022/10/28 06:31:48;;;;;;;1.40;1.27;;;;;;;28.28;28.64;97792.44;5095421;28;20056;-61
2022/10/28 06:34:15;;;;;;;1.50;1.20;;;;;;;28.83;28.10;97794.56;5095415;28;20043;-60
2022/10/28 06:36:42;;;;;;;2.45;1.17;;;;;;;29.35;26.85;97796.00;5095231;28;20120;-61
2022/10/28 06:39:09;;;;;;;2.20;1.27;;;;;;;29.57;26.91;97796.66;5095212;28;20097;-61
2022/10/28 06:41:37;;;;;;;1.52;1.17;;;;;;;29.83;27.05;97787.03;5095609;28;20040;-61
2022/10/28 06:44:04;;;;;;;2.05;1.50;;;;;;;30.18;26.73;97790.78;5094801;28;20113;-61
2022/10/28 06:46:31;;;;;;;1.38;1.20;;;;;;;30.50;25.72;97796.66;5094857;28;20091;-61
2022/10/28 06:49:02;;;;;;;2.97;1.70;;;;;;;30.92;25.26;97802.41;5095064;28;20547;-61
2022/10/28 06:51:29;;;;;;;3.03;1.63;;;;;;;31.30;24.94;97802.97;5095000;28;20059;-61
2022/10/28 06:53:57;;;;;;;1.80;1.40;;;;;;;31.54;24.47;97801.44;5095020;28;20522;-61
2022/10/28 06:56:24;;;;;;;2.55;1.40;;;;;;;31.86;24.06;97802.56;5094914;28;20044;-61
2022/10/28 06:58:52;;;;;;;1.40;1.30;;;;;;;32.05;24.03;97800.63;5094962;28;20044;-61
2022/10/28 07:01:20;;;;;;;2.28;1.38;;;;;;;32.30;23.45;97802.53;5094880;28;20379;-61
2022/10/28 07:03:47;;;;;;;2.45;1.90;;;;;;;32.69;22.94;97793.78;5094691;28;20048;-61
2022/10/28 07:06:17;;;;;;;2.40;1.75;;;;;;;33.00;22.35;97797.63;5094733;28;20044;-61
2022/10/28 07:08:44;;;;;;;2.90;1.60;;;;;;;33.11;22.24;97799.19;5094684;28;20051;-61
2022/10/28 07:11:11;;;;;;;3.05;1.55;;;;;;;33.45;22.00;97798.06;5094809;28;20048;-61
2022/10/28 07:13:39;;;;;;;1.50;1.40;;;;;;;33.70;21.78;97797.13;5094913;28;20048;-61
2022/10/28 07:16:06;;;;;;;2.10;1.40;;;;;;;33.74;21.18;97798.50;5094501;28;20101;-61
2022/10/28 07:18:34;;;;;;;6.47;2.17;;;;;;;33.54;21.65;97793.47;5094430;28;20493;-61
2022/10/28 07:21:01;;;;;;;1.83;1.58;;;;;;;33.80;21.51;97792.38;5094341;28;20402;-60
2022/10/28 07:23:31;;;;;;;2.25;1.45;;;;;;;34.15;20.96;97786.59;5094480;28;20043;-61
2022/10/28 07:25:59;;;;;;;2.63;1.63;;;;;;;34.68;20.22;97787.75;5094467;28;20048;-61
2022/10/28 07:28:26;;;;;;;2.33;1.65;;;;;;;34.94;19.89;97790.03;5094483;28;20508;-61
2022/10/28 07:30:54;;;;;;;2.10;1.67;;;;;;;35.28;19.63;97793.31;5094299;28;20048;-61
2022/10/28 07:33:22;;;;;;;2.17;1.60;;;;;;;35.32;19.32;97796.47;5094529;28;20117;-61
2022/10/28 07:35:49;;;;;;;2.05;1.40;;;;;;;35.48;18.97;97793.56;5093960;28;20486;-61
2022/10/28 07:38:17;;;;;;;1.52;1.30;;;;;;;35.72;18.78;97785.34;5094142;28;20425;-61
2022/10/28 07:40:46;;;;;;;1.50;1.40;;;;;;;35.67;18.78;97785.88;5094414;28;20477;-61
2022/10/28 07:43:13;;;;;;;1.85;1.33;;;;;;;35.34;18.89;97788.97;5094241;28;20047;-61
2022/10/28 07:45:40;;;;;;;2.30;1.38;;;;;;;35.03;19.47;97790.78;5094006;28;20135;-60
2022/10/28 07:48:07;;;;;;;3.00;1.50;;;;;;;34.76;19.31;97788.50;5093948;28;20117;-61
2022/10/28 07:50:35;;;;;;;2.67;1.63;;;;;;;34.22;20.24;97784.84;5093843;28;20068;-61
2022/10/28 07:53:02;;;;;;;3.53;1.13;;;;;;;33.46;20.40;97786.19;5093966;28;20051;-61
2022/10/28 07:55:29;;;;;;;1.75;1.42;;;;;;;32.69;21.16;97777.53;5093754;28;20536;-61
2022/10/28 07:57:59;;;;;;;2.35;1.30;;;;;;;31.61;22.21;97780.88;5093737;28;20131;-61
2022/10/28 08:00:26;;;;;;;3.67;1.37;;;;;;;30.80;23.01;97782.91;5093694;28;20047;-61
2022/10/28 08:02:53;;;;;;;1.25;1.15;;;;;;;29.96;23.67;97779.44;5093728;28;20052;-60
2022/10/28 08:05:20;;;;;;;1.70;1.17;;;;;;;29.20;24.09;97775.94;5093530;28;20131;-60
2022/10/28 08:07:47;;;;;;;1.13;1.02;;;;;;;28.35;25.14;97774.81;5093735;28;20535;-61
2022/10/28 08:10:15;;;;;;;1.40;1.30;;;;;;;27.59;25.78;97775.19;5093631;28;20040;-60
2022/10/28 08:12:42;;;;;;;1.90;1.27;;;;;;;27.05;26.79;97774.53;5093746;28;20097;-60
2022/10/28 08:15:13;;;;;;;1.42;1.27;;;;;;;26.43;27.94;97776.06;5093549;28;20787;-60
2022/10/28 08:17:40;;;;;;;1.27;1.17;;;;;;;25.84;28.57;97772.84;5093340;28;20070;-60
2022/10/28 08:20:08;;;;;;;2.28;1.15;;;;;;;25.59;28.52;97766.78;5093521;28;20048;-60
2022/10/28 08:22:35;;;;;;;2.78;1.30;;;;;;;25.05;29.87;97763.88;5093258;28;20047;-61
2022/10/28 08:25:02;;;;;;;1.45;1.30;;;;;;;24.76;30.33;97769.63;5093431;28;20097;-60
2022/10/28 08:27:29;;;;;;;1.40;1.20;;;;;;;24.51;30.74;97769.69;5093322;28;20414;-60
2022/10/28 08:29:57;;;;;;;1.30;1.20;;;;;;;24.32;30.41;97760.38;5093349;28;20056;-60
2022/10/28 08:32:26;;;;;;;1.88;1.23;;;;;;;24.13;31.52;97760.91;5093528;28;20055;-61
2022/10/28 08:34:53;;;;;;;2.95;1.48;;;;;;;24.01;30.97;97762.66;5093497;28;20055;-60
2022/10/28 08:37:20;;;;;;;1.55;1.20;;;;;;;23.84;31.45;97761.25;5093157;28;20101;-59
2022/10/28 08:39:47;;;;;;;1.50;1.20;;;;;;;23.60;31.71;97760.22;5093291;28;20044;-60
2022/10/28 08:42:33;;;;;;;1.55;1.00;;;;;;;23.73;31.80;97757.53;5093113;28;20056;-60
2022/10/28 08:45:25;;;;;;;1.67;1.50;;;;;;;23.76;31.00;97759.13;5093125;28;20059;-60
2022/10/28 08:48:05;;;;;;;2.03;1.30;;;;;;;23.31;31.45;97759.63;5089303;28;20048;-60
2022/10/28 08:50:38;;;;;;;2.03;1.40;;;;;;;22.67;33.17;97772.03;5093143;28;20052;-60
2022/10/28 08:53:13;;;;;;;1.65;1.25;;;;;;;22.32;33.63;97762.75;5092978;28;20047;-60
2022/10/28 08:55:43;;;;;;;1.65;1.55;;;;;;;22.08;33.91;97766.94;5093046;28;20489;-60
2022/10/28 08:58:17;;;;;;;2.53;1.60;;;;;;;21.90;34.27;97760.16;5093060;28;20059;-60
2022/10/28 09:00:46;;;;;;;2.17;1.50;;;;;;;21.81;34.82;97766.94;5093341;28;20151;-60
2022/10/28 09:03:21;;;;;;;2.80;1.50;;;;;;;21.71;34.99;97758.66;5092952;28;20527;-59
2022/10/28 09:05:53;;;;;;;3.05;1.58;;;;;;;21.47;34.91;97753.97;5093013;28;20047;-60
2022/10/28 09:08:23;;;;;;;3.33;1.88;;;;;;;21.34;35.21;97754.72;5094619;28;20048;-59
2022/10/28 09:11:22;;;;;;;2.20;1.80;;;;;;;21.15;36.03;97759.47;5097132;28;20048;-60
2022/10/28 09:14:07;;;;;;;1.58;1.48;;;;;;;20.79;37.05;97746.53;5081650;28;20425;-60
2022/10/28 09:16:45;;;;;;;3.72;1.42;;;;;;;20.61;37.11;97747.63;5096799;28;20044;-59
2022/10/28 09:19:34;;;;;;;1.75;1.48;;;;;;;20.54;36.81;97744.50;5097174;28;20127;-60
2022/10/28 09:22:15;;;;;;;4.30;1.50;;;;;;;20.38;36.82;97742.75;5096450;28;20079;-61
2022/10/28 09:24:48;;;;;;;1.80;1.48;;;;;;;20.17;35.92;97736.91;5096809;28;20413;-60
2022/10/28 09:27:27;;;;;;;2.40;1.63;;;;;;;20.10;37.01;97728.44;5096597;28;20040;-61
2022/10/28 09:30:14;;;;;;;2.70;1.52;;;;;;;20.09;36.95;97734.69;5096995;28;20048;-60
2022/10/28 09:32:48;;;;;;;4.10;1.98;;;;;;;20.12;36.55;97737.19;5096501;28;20135;-61
2022/10/28 09:35:20;;;;;;;1.70;1.30;;;;;;;20.08;38.11;97730.34;5096366;28;20093;-61
2022/10/28 09:37:53;;;;;;;3.38;1.77;;;;;;;20.19;38.17;97725.25;5096412;28;20135;-60
2022/10/28 09:40:25;;;;;;;3.70;1.48;;;;;;;20.28;36.97;97731.81;5096381;28;20052;-60
2022/10/28 09:43:05;;;;;;;3.55;1.52;;;;;;;20.44;36.37;97723.78;5096562;28;20098;-61
2022/10/28 09:45:36;;;;;;;2.78;1.48;;;;;;;20.63;36.53;97714.72;5096351;28;20041;-61
2022/10/28 09:48:09;;;;;;;2.22;1.48;;;;;;;20.73;35.70;97708.81;5096358;28;20044;-61
2022/10/28 09:50:38;;;;;;;2.08;1.33;;;;;;;20.93;36.90;97707.63;5096508;28;20055;-61
2022/10/28 09:53:15;;;;;;;1.50;1.40;;;;;;;21.15;35.96;97700.97;5096234;28;20059;-61
2022/10/28 09:55:42;;;;;;;2.30;1.17;;;;;;;21.46;34.99;97699.00;5096078;28;20107;-61
2022/10/28 09:58:12;;;;;;;1.88;1.30;;;;;;;21.60;35.04;97703.44;5096130;28;20078;-61
2022/10/28 10:00:40;;;;;;;2.20;1.53;;;;;;;21.70;34.14;97703.69;5096065;28;20044;-61
2022/10/28 10:03:07;;;;;;;4.38;1.52;;;;;;;21.81;33.71;97695.91;5095977;28;20284;-61
2022/10/28 10:05:42;;;;;;;1.60;1.35;;;;;;;22.03;33.78;97698.97;5095911;28;20048;-61
2022/10/28 10:08:15;;;;;;;2.00;1.38;;;;;;;22.17;33.97;97690.03;5095853;28;20080;-61
2022/10/28 10:10:47;;;;;;;1.80;1.48;;;;;;;22.17;32.47;97690.88;5095931;28;20504;-61
2022/10/28 10:13:18;;;;;;;3.13;1.40;;;;;;;21.85;33.32;97685.88;5096054;28;20048;-61
2022/10/28 10:15:49;;;;;;;1.77;1.30;;;;;;;21.70;32.90;97688.59;5095949;28;20044;-61
2022/10/28 10:18:21;;;;;;;1.85;1.20;;;;;;;21.33;33.19;97693.63;5095580;28;20052;-61
2022/10/28 10:20:52;;;;;;;1.73;1.20;;;;;;;21.00;34.56;97685.03;5094411;28;20054;-60
2022/10/28 10:23:26;;;;;;;2.25;1.30;;;;;;;20.96;34.63;97686.19;5095666;28;20052;-61
2022/10/28 10:25:56;;;;;;;1.30;1.05;;;;;;;21.03;34.52;97682.19;5095486;28;20047;-61
2022/10/28 10:28:26;;;;;;;1.52;1.23;;;;;;;20.95;34.36;97684.47;5095528;28;20075;-60
2022/10/28 10:30:56;;;;;;;2.40;1.60;;;;;;;20.82;34.60;97681.69;5095487;28;20055;-60
2022/10/28 10:33:27;;;;;;;0.98;0.90;;;;;;;20.65;34.16;97674.75;5095697;28;20048;-60
2022/10/28 10:35:58;;;;;;;2.65;1.60;;;;;;;20.65;34.53;97669.44;5095442;28;20055;-61
2022/10/28 10:38:27;;;;;;;1.80;1.65;;;;;;;20.85;34.92;97665.53;5095427;28;20504;-61
2022/10/28 10:40:55;;;;;;;2.30;1.65;;;;;;;20.96;35.33;97659.59;5095236;28;20494;-61
2022/10/28 10:43:29;;;;;;;3.28;1.35;;;;;;;21.16;34.67;97660.97;5095186;28;20494;-60
2022/10/28 10:46:02;;;;;;;1.33;1.23;;;;;;;21.21;34.80;97660.69;5095257;28;20052;-60
2022/10/28 10:48:31;;;;;;;3.38;1.10;;;;;;;21.34;34.14;97658.06;5095183;28;20048;-61
2022/10/28 10:51:05;;;;;;;1.83;1.50;;;;;;;21.45;33.89;97655.59;5095428;28;20058;-60
2022/10/28 10:53:34;;;;;;;2.67;1.55;;;;;;;21.54;33.95;97650.59;5095005;28;20055;-60
2022/10/28 10:56:02;;;;;;;3.30;1.20;;;;;;;21.48;33.40;97651.00;5094871;28;20052;-60
2022/10/28 10:58:33;;;;;;;2.28;1.48;;;;;;;21.63;33.97;97658.00;5095209;28;20414;-60
2022/10/28 11:01:03;;;;;;;1.52;1.35;;;;;;;21.78;33.60;97657.97;5094930;28;20561;-60
2022/10/28 11:03:35;;;;;;;1.70;1.00;;;;;;;21.75;33.83;97652.81;5094856;28;20105;-61
2022/10/28 11:06:07;;;;;;;2.20;1.38;;;;;;;21.71;34.14;97654.84;5094808;28;20048;-61
2022/10/28 11:08:37;;;;;;;2.47;1.40;;;;;;;21.67;34.40;97648.00;5094707;28;20409;-60
2022/10/28 11:11:07;;;;;;;2.00;1.58;;;;;;;21.70;33.95;97650.44;5094713;28;20059;-60
2022/10/28 11:13:35;;;;;;;2.67;1.95;;;;;;;21.57;34.28;97653.06;5094616;28;20051;-60
2022/10/28 11:16:05;;;;;;;1.88;1.38;;;;;;;21.61;34.68;97649.25;5094653;28;20154;-61
2022/10/28 11:18:41;;;;;;;2.35;1.75;;;;;;;21.65;34.30;97644.59;5094511;28;20086;-61
2022/10/28 11:21:26;;;;;;;1.65;1.25;;;;;;;21.64;34.58;97643.72;5094274;28;20117;-60
2022/10/28 11:24:08;;;;;;;2.17;1.38;;;;;;;21.64;33.44;97646.38;5094707;28;20056;-60
2022/10/28 11:26:43;;;;;;;2.55;1.23;;;;;;;21.61;34.35;97646.59;5094470;28;20058;-59
2022/10/28 11:29:13;;;;;;;1.30;1.20;;;;;;;21.66;34.18;97641.81;5094277;28;20050;-60
2022/10/28 11:32:09;;;;;;;1.95;1.33;;;;;;;21.65;32.92;97636.59;5094025;28;20044;-60
2022/10/28 11:35:03;;;;;;;5.00;1.77;;;;;;;21.55;33.02;97628.38;5094256;28;20048;-60
2022/10/28 11:37:44;;;;;;;3.47;1.08;;;;;;;21.33;33.45;97627.97;5094065;28;20455;-60
2022/10/28 11:40:26;;;;;;;2.00;1.60;;;;;;;21.11;33.33;97622.31;5094065;28;20044;-60
2022/10/28 11:43:06;;;;;;;2.38;1.60;;;;;;;21.09;34.22;97619.75;5094339;28;20052;-60
2022/10/28 11:45:41;;;;;;;1.92;1.17;;;;;;;20.95;33.84;97618.00;5094016;28;20040;-60
2022/10/28 11:48:28;;;;;;;1.50;1.40;;;;;;;20.78;35.34;97616.34;5094252;28;20052;-60
2022/10/28 11:51:06;;;;;;;2.17;1.40;;;;;;;20.76;34.54;97611.13;5093928;28;20508;-60
2022/10/28 11:53:55;;;;;;;2.38;1.35;;;;;;;20.85;34.14;97604.38;5093858;28;20052;-60
2022/10/28 11:56:33;;;;;;;4.45;1.40;;;;;;;20.65;34.79;97601.16;5093750;28;20044;-61